sensor_id;sensor_type;location;lat;lon;timestamp;temperature;humidity
3792;DHT22;1911;53.768;11.474;2023-08-06T00:01:51;15.30;99.90
3792;DHT22;1911;53.768;11.474;2023-08-06T00:04:17;15.30;99.90
3792;DHT22;1911;53.768;11.474;2023-08-06T00:06:42;15.20;99.90
3792;DHT22;1911;53.768;11.474;2023-08-06T00:09:08;15.20;99.90
3792;DHT22;1911;53.768;11.474;2023-08-06T00:11:33;15.30;99.90
3792;DHT22;1911;53.768;11.474;2023-08-06T00:13:59;15.20;99.90
3792;DHT22;1911;53.768;11.474;2023-08-06T00:16:25;15.30;99.90
3792;DHT22;1911;53.768;11.474;2023-08-06T00:18:50;15.20;99.90
3792;DHT22;1911;53.768;11.474;2023-08-06T00:21:16;15.30;99.90
3792;DHT22;1911;53.768;11.474;2023-08-06T00:23:41;15.30;99.90
3792;DHT22;1911;53.768;11.474;2023-08-06T00:26:07;15.20;99.90
3792;DHT22;1911;53.768;11.474;2023-08-06T00:28:32;15.20;99.90
3792;DHT22;1911;53.768;11.474;2023-08-06T00:30:58;15.20;99.90
3792;DHT22;1911;53.768;11.474;2023-08-06T00:33:24;15.20;99.90
3792;DHT22;1911;53.768;11.474;2023-08-06T00:35:50;15.20;99.90
3792;DHT22;1911;53.768;11.474;2023-08-06T00:38:16;15.20;99.90
3792;DHT22;1911;53.768;11.474;2023-08-06T00:40:41;15.20;99.90
3792;DHT22;1911;53.768;11.474;2023-08-06T00:43:07;15.10;99.90
3792;DHT22;1911;53.768;11.474;2023-08-06T00:45:35;15.20;99.90
3792;DHT22;1911;53.768;11.474;2023-08-06T00:48:03;15.10;99.90
3792;DHT22;1911;53.768;11.474;2023-08-06T00:50:29;15.10;99.90
3792;DHT22;1911;53.768;11.474;2023-08-06T00:52:55;15.10;99.90
3792;DHT22;1911;53.768;11.474;2023-08-06T00:55:21;15.10;99.90
3792;DHT22;1911;53.768;11.474;2023-08-06T00:57:47;15.10;99.90
3792;DHT22;1911;53.768;11.474;2023-08-06T01:00:13;15.00;99.90
3792;DHT22;1911;53.768;11.474;2023-08-06T01:02:39;15.00;99.90
3792;DHT22;1911;53.768;11.474;2023-08-06T01:05:04;15.00;99.90
3792;DHT22;1911;53.768;11.474;2023-08-06T01:10:23;15.00;99.90
3792;DHT22;1911;53.768;11.474;2023-08-06T01:15:28;15.00;99.90
3792;DHT22;1911;53.768;11.474;2023-08-06T01:17:54;15.00;99.90
3792;DHT22;1911;53.768;11.474;2023-08-06T01:20:20;15.00;99.90
3792;DHT22;1911;53.768;11.474;2023-08-06T01:22:46;15.00;99.90
3792;DHT22;1911;53.768;11.474;2023-08-06T01:25:15;15.00;99.90
3792;DHT22;1911;53.768;11.474;2023-08-06T01:27:45;15.00;99.90
3792;DHT22;1911;53.768;11.474;2023-08-06T01:30:12;15.00;99.90
3792;DHT22;1911;53.768;11.474;2023-08-06T01:32:42;15.00;99.90
3792;DHT22;1911;53.768;11.474;2023-08-06T01:35:10;15.00;99.90
3792;DHT22;1911;53.768;11.474;2023-08-06T01:37:37;15.00;99.90
3792;DHT22;1911;53.768;11.474;2023-08-06T01:40:14;15.00;99.90
3792;DHT22;1911;53.768;11.474;2023-08-06T01:42:40;14.90;99.90
3792;DHT22;1911;53.768;11.474;2023-08-06T01:45:07;15.00;99.90
3792;DHT22;1911;53.768;11.474;2023-08-06T01:47:33;15.00;99.90
3792;DHT22;1911;53.768;11.474;2023-08-06T01:49:59;15.00;99.90
3792;DHT22;1911;53.768;11.474;2023-08-06T01:52:26;15.00;99.90
3792;DHT22;1911;53.768;11.474;2023-08-06T01:54:51;15.00;99.90
3792;DHT22;1911;53.768;11.474;2023-08-06T01:57:17;15.00;99.90
3792;DHT22;1911;53.768;11.474;2023-08-06T01:59:42;15.00;99.90
3792;DHT22;1911;53.768;11.474;2023-08-06T02:02:08;14.90;99.90
3792;DHT22;1911;53.768;11.474;2023-08-06T02:04:33;14.90;99.90
3792;DHT22;1911;53.768;11.474;2023-08-06T02:06:59;14.90;99.90
3792;DHT22;1911;53.768;11.474;2023-08-06T02:09:24;14.90;99.90
3792;DHT22;1911;53.768;11.474;2023-08-06T02:11:50;14.90;99.90
3792;DHT22;1911;53.768;11.474;2023-08-06T02:14:16;14.90;99.90
3792;DHT22;1911;53.768;11.474;2023-08-06T02:16:41;14.90;99.90
3792;DHT22;1911;53.768;11.474;2023-08-06T02:19:07;14.90;99.90
3792;DHT22;1911;53.768;11.474;2023-08-06T02:21:32;14.90;99.90
3792;DHT22;1911;53.768;11.474;2023-08-06T02:23:58;14.90;99.90
3792;DHT22;1911;53.768;11.474;2023-08-06T02:26:23;14.90;99.90
3792;DHT22;1911;53.768;11.474;2023-08-06T02:28:49;14.90;99.90
3792;DHT22;1911;53.768;11.474;2023-08-06T02:31:15;14.90;99.90
3792;DHT22;1911;53.768;11.474;2023-08-06T02:33:40;15.00;99.90
3792;DHT22;1911;53.768;11.474;2023-08-06T02:36:06;15.00;99.90
3792;DHT22;1911;53.768;11.474;2023-08-06T02:38:32;15.00;99.90
3792;DHT22;1911;53.768;11.474;2023-08-06T02:40:57;15.00;99.90
3792;DHT22;1911;53.768;11.474;2023-08-06T02:43:23;15.10;99.90
3792;DHT22;1911;53.768;11.474;2023-08-06T02:45:49;15.10;99.90
3792;DHT22;1911;53.768;11.474;2023-08-06T02:48:14;15.10;99.90
3792;DHT22;1911;53.768;11.474;2023-08-06T02:50:40;15.00;99.90
3792;DHT22;1911;53.768;11.474;2023-08-06T02:53:07;15.10;99.90
3792;DHT22;1911;53.768;11.474;2023-08-06T02:55:33;15.00;99.90
3792;DHT22;1911;53.768;11.474;2023-08-06T02:58:00;15.00;99.90
3792;DHT22;1911;53.768;11.474;2023-08-06T03:00:26;15.00;99.90
3792;DHT22;1911;53.768;11.474;2023-08-06T03:02:52;15.00;99.90
3792;DHT22;1911;53.768;11.474;2023-08-06T03:05:18;15.00;99.90
3792;DHT22;1911;53.768;11.474;2023-08-06T03:07:43;14.90;99.90
3792;DHT22;1911;53.768;11.474;2023-08-06T03:10:09;14.90;99.90
3792;DHT22;1911;53.768;11.474;2023-08-06T03:12:35;14.90;99.90
3792;DHT22;1911;53.768;11.474;2023-08-06T03:15:00;14.90;99.90
3792;DHT22;1911;53.768;11.474;2023-08-06T03:17:26;14.90;99.90
3792;DHT22;1911;53.768;11.474;2023-08-06T03:19:51;14.90;99.90
3792;DHT22;1911;53.768;11.474;2023-08-06T03:22:17;14.90;99.90
3792;DHT22;1911;53.768;11.474;2023-08-06T03:24:42;14.80;99.90
3792;DHT22;1911;53.768;11.474;2023-08-06T03:27:08;14.80;99.90
3792;DHT22;1911;53.768;11.474;2023-08-06T03:29:33;14.80;99.90
3792;DHT22;1911;53.768;11.474;2023-08-06T03:31:59;14.80;99.90
3792;DHT22;1911;53.768;11.474;2023-08-06T03:34:24;14.80;99.90
3792;DHT22;1911;53.768;11.474;2023-08-06T03:36:50;14.80;99.90
3792;DHT22;1911;53.768;11.474;2023-08-06T03:39:15;14.70;99.90
3792;DHT22;1911;53.768;11.474;2023-08-06T03:41:41;14.80;99.90
3792;DHT22;1911;53.768;11.474;2023-08-06T03:44:07;14.70;99.90
3792;DHT22;1911;53.768;11.474;2023-08-06T03:46:32;14.70;99.90
3792;DHT22;1911;53.768;11.474;2023-08-06T03:49:00;14.60;99.90
3792;DHT22;1911;53.768;11.474;2023-08-06T03:51:25;14.70;99.90
3792;DHT22;1911;53.768;11.474;2023-08-06T03:53:51;14.60;99.90
3792;DHT22;1911;53.768;11.474;2023-08-06T03:56:16;14.60;99.90
3792;DHT22;1911;53.768;11.474;2023-08-06T03:58:42;14.70;99.90
3792;DHT22;1911;53.768;11.474;2023-08-06T04:01:07;14.70;99.90
3792;DHT22;1911;53.768;11.474;2023-08-06T04:03:33;14.60;99.90
3792;DHT22;1911;53.768;11.474;2023-08-06T04:05:59;14.70;99.90
3792;DHT22;1911;53.768;11.474;2023-08-06T04:08:26;14.70;99.90
3792;DHT22;1911;53.768;11.474;2023-08-06T04:10:52;14.70;99.90
3792;DHT22;1911;53.768;11.474;2023-08-06T04:13:18;14.70;99.90
3792;DHT22;1911;53.768;11.474;2023-08-06T04:15:44;14.70;99.90
3792;DHT22;1911;53.768;11.474;2023-08-06T04:18:10;14.70;99.90
3792;DHT22;1911;53.768;11.474;2023-08-06T04:20:42;14.70;99.90
3792;DHT22;1911;53.768;11.474;2023-08-06T04:23:08;14.70;99.90
3792;DHT22;1911;53.768;11.474;2023-08-06T04:25:34;14.70;99.90
3792;DHT22;1911;53.768;11.474;2023-08-06T04:28:00;14.80;99.90
3792;DHT22;1911;53.768;11.474;2023-08-06T04:30:25;14.80;99.90
3792;DHT22;1911;53.768;11.474;2023-08-06T04:32:51;14.80;99.90
3792;DHT22;1911;53.768;11.474;2023-08-06T04:35:16;14.80;99.90
3792;DHT22;1911;53.768;11.474;2023-08-06T04:37:42;14.90;99.90
3792;DHT22;1911;53.768;11.474;2023-08-06T04:40:08;14.80;99.90
3792;DHT22;1911;53.768;11.474;2023-08-06T04:42:34;14.80;99.90
3792;DHT22;1911;53.768;11.474;2023-08-06T04:45:01;14.70;99.90
3792;DHT22;1911;53.768;11.474;2023-08-06T04:47:27;14.80;99.90
3792;DHT22;1911;53.768;11.474;2023-08-06T04:49:53;14.80;99.90
3792;DHT22;1911;53.768;11.474;2023-08-06T04:52:18;14.80;99.90
3792;DHT22;1911;53.768;11.474;2023-08-06T04:54:44;14.80;99.90
3792;DHT22;1911;53.768;11.474;2023-08-06T04:57:09;14.80;99.90
3792;DHT22;1911;53.768;11.474;2023-08-06T04:59:35;14.90;99.90
3792;DHT22;1911;53.768;11.474;2023-08-06T05:02:01;14.90;99.90
3792;DHT22;1911;53.768;11.474;2023-08-06T05:04:27;15.00;99.90
3792;DHT22;1911;53.768;11.474;2023-08-06T05:06:52;14.90;99.90
3792;DHT22;1911;53.768;11.474;2023-08-06T05:09:18;15.00;99.90
3792;DHT22;1911;53.768;11.474;2023-08-06T05:11:46;15.00;99.90
3792;DHT22;1911;53.768;11.474;2023-08-06T05:14:12;15.00;99.90
3792;DHT22;1911;53.768;11.474;2023-08-06T05:16:37;15.00;99.90
3792;DHT22;1911;53.768;11.474;2023-08-06T05:19:03;15.10;99.90
3792;DHT22;1911;53.768;11.474;2023-08-06T05:21:29;15.10;99.90
3792;DHT22;1911;53.768;11.474;2023-08-06T05:23:54;15.10;99.90
3792;DHT22;1911;53.768;11.474;2023-08-06T05:26:20;15.10;99.90
3792;DHT22;1911;53.768;11.474;2023-08-06T05:28:45;15.20;99.90
3792;DHT22;1911;53.768;11.474;2023-08-06T05:31:11;15.10;99.90
3792;DHT22;1911;53.768;11.474;2023-08-06T05:33:37;15.20;99.90
3792;DHT22;1911;53.768;11.474;2023-08-06T05:36:03;15.30;99.90
3792;DHT22;1911;53.768;11.474;2023-08-06T05:38:29;15.40;99.90
3792;DHT22;1911;53.768;11.474;2023-08-06T05:40:55;15.60;99.90
3792;DHT22;1911;53.768;11.474;2023-08-06T05:43:22;15.60;99.90
3792;DHT22;1911;53.768;11.474;2023-08-06T05:45:49;15.70;99.90
3792;DHT22;1911;53.768;11.474;2023-08-06T05:48:15;15.80;99.90
3792;DHT22;1911;53.768;11.474;2023-08-06T05:50:41;15.90;99.90
3792;DHT22;1911;53.768;11.474;2023-08-06T05:53:07;15.90;99.90
3792;DHT22;1911;53.768;11.474;2023-08-06T05:55:33;16.00;99.90
3792;DHT22;1911;53.768;11.474;2023-08-06T05:57:59;16.20;99.90
3792;DHT22;1911;53.768;11.474;2023-08-06T06:00:25;16.10;99.90
3792;DHT22;1911;53.768;11.474;2023-08-06T06:02:50;16.20;99.90
3792;DHT22;1911;53.768;11.474;2023-08-06T06:05:16;16.20;99.90
3792;DHT22;1911;53.768;11.474;2023-08-06T06:07:42;16.20;99.90
3792;DHT22;1911;53.768;11.474;2023-08-06T06:10:07;16.30;99.90
3792;DHT22;1911;53.768;11.474;2023-08-06T06:12:33;16.40;99.90
3792;DHT22;1911;53.768;11.474;2023-08-06T06:14:59;16.40;99.90
3792;DHT22;1911;53.768;11.474;2023-08-06T06:17:29;16.40;99.90
3792;DHT22;1911;53.768;11.474;2023-08-06T06:19:54;16.50;99.90
3792;DHT22;1911;53.768;11.474;2023-08-06T06:22:20;16.60;99.90
3792;DHT22;1911;53.768;11.474;2023-08-06T06:24:48;16.80;99.90
3792;DHT22;1911;53.768;11.474;2023-08-06T06:27:16;16.90;99.90
3792;DHT22;1911;53.768;11.474;2023-08-06T06:29:41;17.00;99.90
3792;DHT22;1911;53.768;11.474;2023-08-06T06:32:07;17.00;99.90
3792;DHT22;1911;53.768;11.474;2023-08-06T06:34:35;17.00;99.90
3792;DHT22;1911;53.768;11.474;2023-08-06T06:37:03;17.00;99.90
3792;DHT22;1911;53.768;11.474;2023-08-06T06:39:29;17.00;99.90
3792;DHT22;1911;53.768;11.474;2023-08-06T06:41:54;17.00;99.90
3792;DHT22;1911;53.768;11.474;2023-08-06T06:44:22;16.90;99.90
3792;DHT22;1911;53.768;11.474;2023-08-06T06:46:48;17.00;99.90
3792;DHT22;1911;53.768;11.474;2023-08-06T06:49:13;17.00;99.90
3792;DHT22;1911;53.768;11.474;2023-08-06T06:51:39;17.30;99.90
3792;DHT22;1911;53.768;11.474;2023-08-06T06:54:04;17.30;99.90
3792;DHT22;1911;53.768;11.474;2023-08-06T06:56:30;17.10;99.90
3792;DHT22;1911;53.768;11.474;2023-08-06T06:58:58;16.90;99.90
3792;DHT22;1911;53.768;11.474;2023-08-06T07:01:23;17.00;99.90
3792;DHT22;1911;53.768;11.474;2023-08-06T07:03:49;17.10;99.90
3792;DHT22;1911;53.768;11.474;2023-08-06T07:06:14;17.10;99.90
3792;DHT22;1911;53.768;11.474;2023-08-06T07:55:23;18.20;99.90
3792;DHT22;1911;53.768;11.474;2023-08-06T08:05:32;19.10;99.90
3792;DHT22;1911;53.768;11.474;2023-08-06T08:08:41;19.20;99.90
3792;DHT22;1911;53.768;11.474;2023-08-06T08:22:40;19.50;99.90
3792;DHT22;1911;53.768;11.474;2023-08-06T08:42:56;20.10;99.90
3792;DHT22;1911;53.768;11.474;2023-08-06T08:46:08;20.20;99.90
3792;DHT22;1911;53.768;11.474;2023-08-06T09:02:30;20.20;99.90
3792;DHT22;1911;53.768;11.474;2023-08-06T09:19:16;20.80;99.90
3792;DHT22;1911;53.768;11.474;2023-08-06T09:53:10;21.10;93.20
3792;DHT22;1911;53.768;11.474;2023-08-06T09:59:31;21.40;62.20
3792;DHT22;1911;53.768;11.474;2023-08-06T10:02:45;21.20;57.10
3792;DHT22;1911;53.768;11.474;2023-08-06T10:05:23;21.10;57.50
3792;DHT22;1911;53.768;11.474;2023-08-06T10:07:50;20.70;99.90
3792;DHT22;1911;53.768;11.474;2023-08-06T10:10:18;20.70;99.90
3792;DHT22;1911;53.768;11.474;2023-08-06T10:12:50;20.60;99.90
3792;DHT22;1911;53.768;11.474;2023-08-06T10:15:22;20.70;99.90
3792;DHT22;1911;53.768;11.474;2023-08-06T10:17:51;20.60;99.90
3792;DHT22;1911;53.768;11.474;2023-08-06T10:20:17;20.60;99.90
3792;DHT22;1911;53.768;11.474;2023-08-06T10:22:44;20.90;99.90
3792;DHT22;1911;53.768;11.474;2023-08-06T10:25:10;21.00;99.90
3792;DHT22;1911;53.768;11.474;2023-08-06T10:30:27;21.10;94.00
3792;DHT22;1911;53.768;11.474;2023-08-06T10:32:55;21.20;98.00
3792;DHT22;1911;53.768;11.474;2023-08-06T10:35:35;21.10;99.10
3792;DHT22;1911;53.768;11.474;2023-08-06T10:40:42;21.00;99.90
3792;DHT22;1911;53.768;11.474;2023-08-06T10:43:08;21.30;87.70
3792;DHT22;1911;53.768;11.474;2023-08-06T10:45:36;21.40;47.60
3792;DHT22;1911;53.768;11.474;2023-08-06T10:48:03;21.40;55.10
3792;DHT22;1911;53.768;11.474;2023-08-06T10:50:29;21.50;91.90
3792;DHT22;1911;53.768;11.474;2023-08-06T10:52:57;21.60;52.90
3792;DHT22;1911;53.768;11.474;2023-08-06T10:55:31;21.30;67.00
3792;DHT22;1911;53.768;11.474;2023-08-06T10:57:58;21.00;39.80
3792;DHT22;1911;53.768;11.474;2023-08-06T11:00:23;20.40;75.70
3792;DHT22;1911;53.768;11.474;2023-08-06T11:02:50;20.10;99.90
3792;DHT22;1911;53.768;11.474;2023-08-06T11:05:16;20.20;98.20
3792;DHT22;1911;53.768;11.474;2023-08-06T11:07:42;20.20;99.90
3792;DHT22;1911;53.768;11.474;2023-08-06T11:10:10;20.40;99.90
3792;DHT22;1911;53.768;11.474;2023-08-06T11:12:36;20.40;84.20
3792;DHT22;1911;53.768;11.474;2023-08-06T11:15:03;20.30;99.90
3792;DHT22;1911;53.768;11.474;2023-08-06T11:17:30;20.00;90.40
3792;DHT22;1911;53.768;11.474;2023-08-06T11:19:59;20.10;99.90
3792;DHT22;1911;53.768;11.474;2023-08-06T11:22:26;20.40;98.90
3792;DHT22;1911;53.768;11.474;2023-08-06T11:24:53;20.70;72.90
3792;DHT22;1911;53.768;11.474;2023-08-06T11:27:19;20.50;27.20
3792;DHT22;1911;53.768;11.474;2023-08-06T11:29:45;20.40;99.90
3792;DHT22;1911;53.768;11.474;2023-08-06T11:32:11;20.60;95.70
3792;DHT22;1911;53.768;11.474;2023-08-06T11:34:38;20.20;99.90
3792;DHT22;1911;53.768;11.474;2023-08-06T11:37:04;20.10;99.90
3792;DHT22;1911;53.768;11.474;2023-08-06T11:39:35;20.20;99.90
3792;DHT22;1911;53.768;11.474;2023-08-06T11:42:03;20.40;99.90
3792;DHT22;1911;53.768;11.474;2023-08-06T11:44:35;20.30;99.90
3792;DHT22;1911;53.768;11.474;2023-08-06T11:47:02;20.20;99.90
3792;DHT22;1911;53.768;11.474;2023-08-06T11:49:48;19.90;94.40
3792;DHT22;1911;53.768;11.474;2023-08-06T11:52:15;20.20;84.50
3792;DHT22;1911;53.768;11.474;2023-08-06T11:54:42;19.90;98.10
3792;DHT22;1911;53.768;11.474;2023-08-06T11:57:08;20.10;97.40
3792;DHT22;1911;53.768;11.474;2023-08-06T11:59:34;19.90;99.90
3792;DHT22;1911;53.768;11.474;2023-08-06T12:02:04;20.10;99.90
3792;DHT22;1911;53.768;11.474;2023-08-06T12:04:31;20.10;53.00
3792;DHT22;1911;53.768;11.474;2023-08-06T12:07:05;20.40;76.70
3792;DHT22;1911;53.768;11.474;2023-08-06T12:09:33;20.20;1.00
3792;DHT22;1911;53.768;11.474;2023-08-06T12:11:59;20.20;8.10
3792;DHT22;1911;53.768;11.474;2023-08-06T12:14:24;20.20;1.00
3792;DHT22;1911;53.768;11.474;2023-08-06T12:16:50;20.10;1.90
3792;DHT22;1911;53.768;11.474;2023-08-06T12:19:15;20.00;11.60
3792;DHT22;1911;53.768;11.474;2023-08-06T12:21:41;20.20;1.00
3792;DHT22;1911;53.768;11.474;2023-08-06T12:24:06;20.00;1.00
3792;DHT22;1911;53.768;11.474;2023-08-06T12:26:33;20.00;1.00
3792;DHT22;1911;53.768;11.474;2023-08-06T12:28:59;20.00;1.00
3792;DHT22;1911;53.768;11.474;2023-08-06T12:31:24;20.20;1.00
3792;DHT22;1911;53.768;11.474;2023-08-06T12:33:50;20.00;12.70
3792;DHT22;1911;53.768;11.474;2023-08-06T12:36:15;20.20;6.00
3792;DHT22;1911;53.768;11.474;2023-08-06T12:38:41;20.30;16.30
3792;DHT22;1911;53.768;11.474;2023-08-06T12:41:06;20.10;75.80
3792;DHT22;1911;53.768;11.474;2023-08-06T12:43:32;19.90;27.70
3792;DHT22;1911;53.768;11.474;2023-08-06T12:45:57;19.70;41.00
3792;DHT22;1911;53.768;11.474;2023-08-06T12:48:23;19.70;17.90
3792;DHT22;1911;53.768;11.474;2023-08-06T12:50:49;19.70;54.60
3792;DHT22;1911;53.768;11.474;2023-08-06T12:53:14;19.50;2.30
3792;DHT22;1911;53.768;11.474;2023-08-06T12:55:41;19.80;23.40
3792;DHT22;1911;53.768;11.474;2023-08-06T12:58:06;19.90;44.80
3792;DHT22;1911;53.768;11.474;2023-08-06T13:00:32;19.70;1.00
3792;DHT22;1911;53.768;11.474;2023-08-06T13:02:58;19.60;5.50
3792;DHT22;1911;53.768;11.474;2023-08-06T13:05:23;19.80;8.40
3792;DHT22;1911;53.768;11.474;2023-08-06T13:07:49;19.70;1.40
3792;DHT22;1911;53.768;11.474;2023-08-06T13:10:15;20.00;1.00
3792;DHT22;1911;53.768;11.474;2023-08-06T13:12:40;20.00;1.00
3792;DHT22;1911;53.768;11.474;2023-08-06T13:15:06;19.80;1.00
3792;DHT22;1911;53.768;11.474;2023-08-06T13:17:32;20.00;1.00
3792;DHT22;1911;53.768;11.474;2023-08-06T13:19:58;20.10;1.00
3792;DHT22;1911;53.768;11.474;2023-08-06T13:22:23;19.80;1.00
3792;DHT22;1911;53.768;11.474;2023-08-06T13:24:49;20.00;1.00
3792;DHT22;1911;53.768;11.474;2023-08-06T13:27:14;20.40;1.00
3792;DHT22;1911;53.768;11.474;2023-08-06T13:29:42;20.00;1.00
3792;DHT22;1911;53.768;11.474;2023-08-06T13:32:08;19.70;1.00
3792;DHT22;1911;53.768;11.474;2023-08-06T13:34:33;19.60;1.00
3792;DHT22;1911;53.768;11.474;2023-08-06T13:36:59;19.70;1.00
3792;DHT22;1911;53.768;11.474;2023-08-06T13:39:24;19.40;1.00
3792;DHT22;1911;53.768;11.474;2023-08-06T13:41:50;19.20;1.00
3792;DHT22;1911;53.768;11.474;2023-08-06T13:44:16;19.20;1.00
3792;DHT22;1911;53.768;11.474;2023-08-06T13:46:42;19.30;1.00
3792;DHT22;1911;53.768;11.474;2023-08-06T13:49:07;19.40;99.90
3792;DHT22;1911;53.768;11.474;2023-08-06T13:51:33;19.50;1.00
3792;DHT22;1911;53.768;11.474;2023-08-06T13:54:01;19.60;1.00
3792;DHT22;1911;53.768;11.474;2023-08-06T13:56:26;19.60;1.00
3792;DHT22;1911;53.768;11.474;2023-08-06T13:58:52;19.30;1.00
3792;DHT22;1911;53.768;11.474;2023-08-06T14:01:18;19.20;1.00
3792;DHT22;1911;53.768;11.474;2023-08-06T14:03:44;19.30;1.00
3792;DHT22;1911;53.768;11.474;2023-08-06T14:06:10;19.30;1.00
3792;DHT22;1911;53.768;11.474;2023-08-06T14:08:35;19.30;1.00
3792;DHT22;1911;53.768;11.474;2023-08-06T14:11:01;19.50;1.00
3792;DHT22;1911;53.768;11.474;2023-08-06T14:13:27;19.40;1.00
3792;DHT22;1911;53.768;11.474;2023-08-06T14:15:52;19.30;1.00
3792;DHT22;1911;53.768;11.474;2023-08-06T14:18:18;19.30;1.00
3792;DHT22;1911;53.768;11.474;2023-08-06T14:20:44;19.20;12.00
3792;DHT22;1911;53.768;11.474;2023-08-06T14:23:10;19.30;99.90
3792;DHT22;1911;53.768;11.474;2023-08-06T14:25:36;19.40;99.90
3792;DHT22;1911;53.768;11.474;2023-08-06T14:28:01;19.30;99.90
3792;DHT22;1911;53.768;11.474;2023-08-06T14:30:27;19.30;1.00
3792;DHT22;1911;53.768;11.474;2023-08-06T14:32:53;19.10;1.00
3792;DHT22;1911;53.768;11.474;2023-08-06T14:35:18;19.00;57.80
3792;DHT22;1911;53.768;11.474;2023-08-06T14:37:44;19.00;99.90
3792;DHT22;1911;53.768;11.474;2023-08-06T14:40:11;18.90;99.90
3792;DHT22;1911;53.768;11.474;2023-08-06T14:42:39;18.90;99.90
3792;DHT22;1911;53.768;11.474;2023-08-06T14:45:05;19.00;99.90
3792;DHT22;1911;53.768;11.474;2023-08-06T14:47:31;18.70;99.90
3792;DHT22;1911;53.768;11.474;2023-08-06T14:49:56;18.70;99.90
3792;DHT22;1911;53.768;11.474;2023-08-06T14:52:22;18.90;99.90
3792;DHT22;1911;53.768;11.474;2023-08-06T14:54:47;18.70;99.90
3792;DHT22;1911;53.768;11.474;2023-08-06T14:57:13;18.60;99.90
3792;DHT22;1911;53.768;11.474;2023-08-06T14:59:41;18.60;99.90
3792;DHT22;1911;53.768;11.474;2023-08-06T15:02:07;18.60;99.90
3792;DHT22;1911;53.768;11.474;2023-08-06T15:04:35;18.60;99.90
3792;DHT22;1911;53.768;11.474;2023-08-06T15:07:00;18.50;99.90
3792;DHT22;1911;53.768;11.474;2023-08-06T15:09:26;18.60;99.90
3792;DHT22;1911;53.768;11.474;2023-08-06T15:11:51;18.80;99.90
3792;DHT22;1911;53.768;11.474;2023-08-06T15:14:17;18.80;99.90
3792;DHT22;1911;53.768;11.474;2023-08-06T15:16:43;18.60;99.90
3792;DHT22;1911;53.768;11.474;2023-08-06T15:19:08;18.70;99.90
3792;DHT22;1911;53.768;11.474;2023-08-06T15:21:34;18.70;99.90
3792;DHT22;1911;53.768;11.474;2023-08-06T15:23:59;18.60;99.90
3792;DHT22;1911;53.768;11.474;2023-08-06T15:26:25;18.40;99.90
3792;DHT22;1911;53.768;11.474;2023-08-06T15:28:51;18.40;99.90
3792;DHT22;1911;53.768;11.474;2023-08-06T15:31:20;18.40;99.90
3792;DHT22;1911;53.768;11.474;2023-08-06T15:33:47;18.30;99.90
3792;DHT22;1911;53.768;11.474;2023-08-06T15:36:12;18.20;99.90
3792;DHT22;1911;53.768;11.474;2023-08-06T15:38:38;18.20;99.90
3792;DHT22;1911;53.768;11.474;2023-08-06T15:41:04;18.30;99.90
3792;DHT22;1911;53.768;11.474;2023-08-06T15:43:29;18.30;99.90
3792;DHT22;1911;53.768;11.474;2023-08-06T15:45:55;18.50;99.90
3792;DHT22;1911;53.768;11.474;2023-08-06T15:48:20;18.40;99.90
3792;DHT22;1911;53.768;11.474;2023-08-06T15:50:46;18.40;99.90
3792;DHT22;1911;53.768;11.474;2023-08-06T15:53:12;18.40;99.90
3792;DHT22;1911;53.768;11.474;2023-08-06T15:55:37;18.40;99.90
3792;DHT22;1911;53.768;11.474;2023-08-06T15:58:03;18.40;99.90
3792;DHT22;1911;53.768;11.474;2023-08-06T16:00:30;18.30;99.90
3792;DHT22;1911;53.768;11.474;2023-08-06T16:02:56;18.40;99.90
3792;DHT22;1911;53.768;11.474;2023-08-06T16:05:21;18.40;99.90
3792;DHT22;1911;53.768;11.474;2023-08-06T16:07:49;18.30;99.90
3792;DHT22;1911;53.768;11.474;2023-08-06T16:10:15;18.20;99.90
3792;DHT22;1911;53.768;11.474;2023-08-06T16:12:41;18.10;99.90
3792;DHT22;1911;53.768;11.474;2023-08-06T16:15:07;17.90;99.90
3792;DHT22;1911;53.768;11.474;2023-08-06T16:17:32;17.90;99.90
3792;DHT22;1911;53.768;11.474;2023-08-06T16:19:58;17.80;99.90
3792;DHT22;1911;53.768;11.474;2023-08-06T16:22:25;17.80;99.90
3792;DHT22;1911;53.768;11.474;2023-08-06T16:24:50;17.70;99.90
3792;DHT22;1911;53.768;11.474;2023-08-06T16:27:16;17.70;99.90
3792;DHT22;1911;53.768;11.474;2023-08-06T16:29:44;17.70;99.90
3792;DHT22;1911;53.768;11.474;2023-08-06T16:32:11;17.70;99.90
3792;DHT22;1911;53.768;11.474;2023-08-06T16:34:37;17.80;99.90
3792;DHT22;1911;53.768;11.474;2023-08-06T16:37:03;17.70;99.90
3792;DHT22;1911;53.768;11.474;2023-08-06T16:39:29;17.50;99.90
3792;DHT22;1911;53.768;11.474;2023-08-06T16:41:55;17.40;99.90
3792;DHT22;1911;53.768;11.474;2023-08-06T16:44:24;17.30;99.90
3792;DHT22;1911;53.768;11.474;2023-08-06T16:46:50;17.30;99.90
3792;DHT22;1911;53.768;11.474;2023-08-06T16:49:15;17.20;99.90
3792;DHT22;1911;53.768;11.474;2023-08-06T16:51:41;17.20;99.90
3792;DHT22;1911;53.768;11.474;2023-08-06T16:54:09;17.20;99.90
3792;DHT22;1911;53.768;11.474;2023-08-06T16:56:34;17.20;99.90
3792;DHT22;1911;53.768;11.474;2023-08-06T16:59:00;17.20;99.90
3792;DHT22;1911;53.768;11.474;2023-08-06T17:01:26;17.00;99.90
3792;DHT22;1911;53.768;11.474;2023-08-06T17:03:52;17.00;99.90
3792;DHT22;1911;53.768;11.474;2023-08-06T17:06:20;16.90;99.90
3792;DHT22;1911;53.768;11.474;2023-08-06T17:08:45;16.80;99.90
3792;DHT22;1911;53.768;11.474;2023-08-06T17:11:11;16.80;99.90
3792;DHT22;1911;53.768;11.474;2023-08-06T17:13:37;16.70;99.90
3792;DHT22;1911;53.768;11.474;2023-08-06T17:16:02;16.60;99.90
3792;DHT22;1911;53.768;11.474;2023-08-06T17:18:28;16.50;99.90
3792;DHT22;1911;53.768;11.474;2023-08-06T17:20:53;16.40;99.90
3792;DHT22;1911;53.768;11.474;2023-08-06T17:23:20;16.40;99.90
3792;DHT22;1911;53.768;11.474;2023-08-06T17:25:45;16.50;99.90
3792;DHT22;1911;53.768;11.474;2023-08-06T17:28:12;16.50;99.90
3792;DHT22;1911;53.768;11.474;2023-08-06T17:30:41;16.40;99.90
3792;DHT22;1911;53.768;11.474;2023-08-06T17:33:08;16.40;99.90
3792;DHT22;1911;53.768;11.474;2023-08-06T17:35:34;16.40;99.90
3792;DHT22;1911;53.768;11.474;2023-08-06T17:38:00;16.30;99.90
3792;DHT22;1911;53.768;11.474;2023-08-06T17:40:26;16.20;99.90
3792;DHT22;1911;53.768;11.474;2023-08-06T17:42:54;16.20;99.90
3792;DHT22;1911;53.768;11.474;2023-08-06T17:45:20;16.10;99.90
3792;DHT22;1911;53.768;11.474;2023-08-06T17:47:48;16.10;99.90
3792;DHT22;1911;53.768;11.474;2023-08-06T17:50:13;16.00;99.90
3792;DHT22;1911;53.768;11.474;2023-08-06T17:52:39;16.00;99.90
3792;DHT22;1911;53.768;11.474;2023-08-06T17:55:07;16.00;99.90
3792;DHT22;1911;53.768;11.474;2023-08-06T18:44:43;15.60;99.90
3792;DHT22;1911;53.768;11.474;2023-08-06T19:18:55;15.50;99.90
3792;DHT22;1911;53.768;11.474;2023-08-06T19:28:34;15.40;99.90
3792;DHT22;1911;53.768;11.474;2023-08-06T19:31:50;15.40;99.90
3792;DHT22;1911;53.768;11.474;2023-08-06T19:34:47;15.40;99.90
3792;DHT22;1911;53.768;11.474;2023-08-06T19:44:42;15.30;99.90
3792;DHT22;1911;53.768;11.474;2023-08-06T20:34:36;15.30;99.90
3792;DHT22;1911;53.768;11.474;2023-08-06T20:44:11;15.10;99.90
3792;DHT22;1911;53.768;11.474;2023-08-06T20:58:11;15.10;99.90
3792;DHT22;1911;53.768;11.474;2023-08-06T21:25:14;15.00;99.90
3792;DHT22;1911;53.768;11.474;2023-08-06T21:45:04;15.10;99.90